Flight Track Log - Related Links

Times and Time Zones

All times are in EDT time to prevent confusion due to time zone crossing. See the UAL1540 flight status page for this flight to view local times or setup timezone preferences in your user account.

Time Position Orientation Groundspeed Altitude Reporting Facility
EDT Latitude Longitude Course Direction KTS MPH feet Rate Location/Type
Tue 10:42:47 AM 29.9594 -95.3414 147° Southeast 160 184 800  Level Houston Center
Tue 10:43:29 AM 29.9356 -95.3106 132° Southeast 189 217 2,200 2,415 Climbing Houston Center
Tue 10:44:09 AM 29.9144 -95.2756 125° Southeast 208 239 4,100 2,941 Climbing Houston Center
Tue 10:45:00 AM 29.6720 -95.1332 152° Southeast  Level FlightAware Approximate
Tue 10:45:11 AM 29.8728 -95.2083 126° Southeast 250 288 7,200  Level Houston Center
Tue 10:46:00 AM 29.5679 -95.0674 150° Southeast  Level FlightAware Approximate
Tue 10:46:13 AM 29.8031 -95.1664 152° Southeast 284 327 10,500  Level Houston Center
Tue 10:47:00 AM 29.4651 -94.9988 147° Southeast  Level FlightAware Approximate
Tue 10:47:15 AM 29.7244 -95.1219 154° Southeast 306 352 12,300  Level Houston Center
Tue 10:48:00 AM 29.3656 -94.9242 147° Southeast  Level FlightAware Approximate
Tue 10:48:16 AM 29.6272 -95.0672 154° Southeast 365 420 15,100  Level Houston Center
Tue 10:49:18 AM 29.5308 -95.0111 153° Southeast 379 436 17,700 2,371 Climbing Houston Center
Tue 10:50:20 AM 29.4456 -94.9311 141° Southeast 393 452 20,000 2,129 Climbing Houston Center
Tue 10:51:22 AM 29.3611 -94.8436 138° Southeast 406 467 22,100 1,935 Climbing Houston Center
Tue 10:52:24 AM 29.2575 -94.7347 137° Southeast 419 482 24,000 1,403 Climbing Houston Center
Tue 10:53:26 AM 29.1678 -94.6422 138° Southeast 432 497 25,000 488 Climbing Houston Center
Tue 10:54:27 AM 29.0789 -94.5506 138° Southeast 432 497 25,000  Level Houston Center
Tue 10:55:29 AM 28.9781 -94.4778 148° Southeast 429 494 25,000 532 Level Houston Center
Tue 10:56:31 AM 28.8794 -94.4011 146° Southeast 427 491 26,100 1,306 Climbing Houston Center
Tue 10:57:33 AM 28.7778 -94.3233 146° Southeast 437 503 27,700 968 Climbing Houston Center
Tue 10:58:35 AM 28.6731 -94.2419 146° Southeast 450 518 28,100 774 Climbing Houston Center
Tue 10:59:37 AM 28.5472 -94.1469 146° Southeast 453 521 29,300 1,415 Climbing Houston Center
Tue 11:00:38 AM 28.4417 -94.0656 146° Southeast 458 527 31,000 976 Climbing Houston Center
Tue 11:01:40 AM 28.3369 -93.9869 147° Southeast 453 521 31,300 968 Climbing Houston Center
Tue 11:02:42 AM 28.2339 -93.9097 147° Southeast 446 513 33,000 1,016 Climbing Houston Center
Tue 11:03:44 AM 28.1308 -93.8319 146° Southeast 445 512 33,400 968 Climbing Houston Center
Tue 11:04:46 AM 28.0283 -93.7547 146° Southeast 442 509 35,000 1,548 Climbing Houston Center
Tue 11:05:48 AM 27.9072 -93.6639 146° Southeast 436 502 36,600 968 Climbing Houston Center
Tue 11:06:50 AM 27.8058 -93.5875 146° Southeast 437 503 37,000 194 Climbing Houston Center
Tue 11:07:52 AM 27.7003 -93.5081 146° Southeast 452 520 37,000  Level Houston Center
Tue 11:08:54 AM 27.5947 -93.4283 146° Southeast 457 526 37,000  Level Houston Center
Tue 11:09:55 AM 27.4800 -93.3411 146° Southeast 457 526 37,000 49 Level Houston Center
Tue 11:10:57 AM 27.3833 -93.2725 148° Southeast 454 522 37,100  Climbing Houston Center
Tue 11:11:59 AM 27.2697 -93.1878 146° Southeast 451 519 37,000  Descending Houston Center
Tue 11:13:01 AM 27.1753 -93.1142 145° Southeast 454 522 37,100 48 Climbing Houston Center
Tue 11:14:03 AM 27.0481 -93.0258 148° Southeast 449 517 37,100 -48 Level Houston Center
Tue 11:15:05 AM 26.9350 -92.9403 146° Southeast 450 518 37,000 -48 Descending Houston Center
Tue 11:16:07 AM 26.8297 -92.8672 148° Southeast 448 516 37,000  Level Houston Center
Tue 11:17:09 AM 26.7250 -92.7914 147° Southeast 448 516 37,000  Level Houston Center
Tue 11:19:00 AM 26.5318 -92.6623 149° Southeast  Level FlightAware Approximate
Tue 11:26:00 AM 25.7988 -92.1792 152° Southeast  Level FlightAware Approximate
Tue 11:27:00 AM 25.6917 -92.1150 152° Southeast  Level FlightAware Approximate
Tue 11:28:00 AM 25.5879 -92.0448 148° Southeast  Level FlightAware Approximate
Tue 11:29:00 AM 25.4848 -91.9733 149° Southeast  Level FlightAware Approximate
Tue 11:30:00 AM 25.3801 -91.9047 149° Southeast  Level FlightAware Approximate
Tue 11:31:00 AM 25.2753 -91.8362 149° Southeast  Level FlightAware Approximate
Tue 11:32:00 AM 25.1706 -91.7678 149° Southeast  Level FlightAware Approximate
Tue 11:33:00 AM 25.0658 -91.6996 149° Southeast  Level FlightAware Approximate
Tue 11:34:00 AM 24.9610 -91.6314 149° Southeast  Level FlightAware Approximate
Tue 11:35:00 AM 24.8561 -91.5634 150° Southeast  Level FlightAware Approximate
Tue 11:36:00 AM 24.7512 -91.4955 150° Southeast  Level FlightAware Approximate
Tue 11:37:00 AM 24.6463 -91.4277 150° Southeast  Level FlightAware Approximate
Tue 11:38:00 AM 24.5414 -91.3600 150° Southeast  Level FlightAware Approximate
Tue 11:39:00 AM 24.4325 -91.3008 156° South  Level FlightAware Approximate
Tue 11:40:00 AM 24.3210 -91.2473 156° South  Level FlightAware Approximate
Tue 11:41:00 AM 24.2096 -91.1938 156° South  Level FlightAware Approximate
Tue 11:42:00 AM 24.0981 -91.1404 156° South  Level FlightAware Approximate
Tue 11:43:00 AM 23.9865 -91.0873 157° South  Level FlightAware Approximate
Tue 11:44:00 AM 23.8749 -91.0342 157° South  Level FlightAware Approximate
Tue 11:45:00 AM 23.7633 -90.9813 157° South  Level FlightAware Approximate
Tue 11:46:00 AM 23.6517 -90.9285 157° South  Level FlightAware Approximate
Tue 11:47:00 AM 23.5400 -90.8758 157° South  Level FlightAware Approximate
Tue 11:48:00 AM 23.4284 -90.8230 156° South  Level FlightAware Approximate
Tue 11:49:00 AM 23.3171 -90.7695 156° South  Level FlightAware Approximate
Tue 11:50:00 AM 23.2057 -90.7162 156° South  Level FlightAware Approximate
Tue 11:51:00 AM 23.0943 -90.6630 156° South  Level FlightAware Approximate
Tue 11:52:00 AM 22.9829 -90.6098 156° South  Level FlightAware Approximate
Tue 11:53:00 AM 22.8715 -90.5568 156° South  Level FlightAware Approximate
Tue 11:54:00 AM 22.7601 -90.5038 156° South  Level FlightAware Approximate
Tue 11:55:00 AM 22.6486 -90.4509 156° South  Level FlightAware Approximate
Tue 11:56:00 AM 22.5372 -90.3981 156° South  Level FlightAware Approximate
Tue 11:57:00 AM 22.4257 -90.3454 156° South  Level FlightAware Approximate
Tue 11:58:00 AM 22.3142 -90.2927 156° South  Level FlightAware Approximate
Tue 11:59:00 AM 22.2027 -90.2402 156° South  Level FlightAware Approximate
Tue 12:00:00 PM 22.0912 -90.1877 156° South  Level FlightAware Approximate
Tue 12:01:00 PM 21.9796 -90.1354 156° South  Level FlightAware Approximate
Tue 12:02:00 PM 21.8680 -90.0831 156° South  Level FlightAware Approximate
Tue 12:03:00 PM 21.7565 -90.0308 157° South  Level FlightAware Approximate
Tue 12:04:00 PM 21.6448 -89.9787 157° South  Level FlightAware Approximate
Tue 12:05:00 PM 21.5330 -89.9273 157° South  Level FlightAware Approximate
Tue 12:06:00 PM 21.4208 -89.8767 157° South  Level FlightAware Approximate
Tue 12:07:00 PM 21.3085 -89.8263 157° South  Level FlightAware Approximate
Tue 12:08:00 PM 21.1968 -89.7747 156° South  Level FlightAware Approximate
Tue 12:09:00 PM 21.0855 -89.7220 156° South  Level FlightAware Approximate
Tue 12:10:00 PM 20.9742 -89.6693 156° South  Level FlightAware Approximate
Tue 12:11:00 PM 20.8617 -89.6198 158° South  Level FlightAware Approximate
Tue 12:12:00 PM 20.7485 -89.5721 158° South  Level FlightAware Approximate
Tue 12:13:00 PM 20.6353 -89.5245 159° South  Level FlightAware Approximate
Tue 12:14:00 PM 20.5217 -89.4780 159° South  Level FlightAware Approximate
Tue 12:15:00 PM 20.4080 -89.4318 159° South  Level FlightAware Approximate
Tue 12:16:00 PM 20.2943 -89.3857 159° South  Level FlightAware Approximate
Tue 12:17:00 PM 20.1806 -89.3396 159° South  Level FlightAware Approximate
Tue 12:18:00 PM 20.0668 -89.2936 159° South  Level FlightAware Approximate
Tue 12:19:00 PM 19.9529 -89.2480 160° South  Level FlightAware Approximate
Tue 12:20:00 PM 19.8389 -89.2029 160° South  Level FlightAware Approximate
Tue 12:21:00 PM 19.7249 -89.1579 160° South  Level FlightAware Approximate
Tue 12:22:00 PM 19.6108 -89.1130 160° South  Level FlightAware Approximate
Tue 12:23:00 PM 19.4967 -89.0681 160° South  Level FlightAware Approximate
Tue 12:24:00 PM 19.3827 -89.0232 160° South  Level FlightAware Approximate
Tue 12:25:00 PM 19.2686 -88.9785 160° South  Level FlightAware Approximate
Tue 12:26:00 PM 19.1545 -88.9338 160° South  Level FlightAware Approximate
Tue 12:27:00 PM 19.0404 -88.8891 160° South  Level FlightAware Approximate
Tue 12:28:00 PM 18.9262 -88.8446 160° South  Level FlightAware Approximate
Tue 12:29:00 PM 18.8121 -88.8000 160° South  Level FlightAware Approximate
Tue 12:30:00 PM 18.6980 -88.7556 160° South  Level FlightAware Approximate
Tue 12:31:00 PM 18.5838 -88.7112 160° South  Level FlightAware Approximate
Tue 12:32:00 PM 18.4697 -88.6668 160° South  Level FlightAware Approximate
Tue 12:33:00 PM 18.3552 -88.6233 161° South  Level FlightAware Approximate
Tue 12:34:00 PM 18.2400 -88.5820 161° South  Level FlightAware Approximate
Tue 12:35:00 PM 18.1248 -88.5409 161° South  Level FlightAware Approximate
Tue 12:36:00 PM 18.0096 -88.4998 161° South  Level FlightAware Approximate
Tue 12:37:00 PM 17.8949 -88.4572 157° South  Level FlightAware Approximate
Tue 12:38:00 PM 17.7825 -88.4083 157° South  Level FlightAware Approximate
Tue 12:39:00 PM 17.6701 -88.3594 157° South  Level FlightAware Approximate
Tue 12:40:00 PM 17.5577 -88.3106 158° South  Level FlightAware Approximate
Tue 12:41:00 PM 17.4398 -88.2812 169° South  Level FlightAware Approximate
Tue 12:42:00 PM 17.3203 -88.2573 169° South  Level FlightAware Approximate
Tue 12:43:00 PM 17.2008 -88.2335 169° South  Level FlightAware Approximate
Tue 12:44:00 PM 17.0811 -88.2103 170° South  Level FlightAware Approximate
Tue 12:45:00 PM 16.9612 -88.1888 170° South  Level FlightAware Approximate
Tue 12:46:00 PM 16.8413 -88.1673 170° South  Level FlightAware Approximate
Tue 12:47:00 PM 16.7214 -88.1459 170° South  Level FlightAware Approximate
Tue 12:48:00 PM 16.6015 -88.1245 170° South  Level FlightAware Approximate
Tue 12:49:00 PM 16.4824 -88.1032 170° South  Level FlightAware Approximate
Tue 12:50:00 PM 16.3633 -88.0820 170° South  Level FlightAware Approximate
Tue 12:51:00 PM 16.2441 -88.0608 170° South  Level FlightAware Approximate
Tue 12:52:00 PM 16.1258 -88.0356 166° South  Level FlightAware Approximate
Tue 12:53:00 PM 16.0067 -88.0097 168° South  Level FlightAware Approximate
Tue 12:54:00 PM 15.8876 -87.9842 168° South  Level FlightAware Approximate
Tue 12:55:00 PM 15.7684 -87.9587 168° South  Level FlightAware Approximate
Tue 12:56:00 PM 15.6492 -87.9333 180° South  Level FlightAware Approximate
Tue 12:57:00 PM 15.5296 -87.9157 166° South  Level FlightAware Approximate
Tue 12:58:00 PM 15.4154 -87.8744 154° Southeast  Level FlightAware Approximate
Tue 12:59:00 PM 15.3058 -87.8196 154° Southeast  Level FlightAware Approximate
Tue 01:00:00 PM 15.1925 -87.7737 159° South  Level FlightAware Approximate
Tue 01:01:00 PM 15.0803 -87.7250 156° South  Level FlightAware Approximate
Tue 01:02:00 PM 14.9696 -87.6729 156° South  Level FlightAware Approximate
Tue 01:03:00 PM 14.8588 -87.6208 156° South  Level FlightAware Approximate
Tue 01:04:00 PM 14.7492 -87.5662 154° Southeast  Level FlightAware Approximate
Tue 01:05:00 PM 14.6413 -87.5081 152° Southeast  Level FlightAware Approximate
Tue 01:06:00 PM 14.5322 -87.4529 159° South  Level FlightAware Approximate
Tue 01:07:00 PM 14.4188 -87.4075 159° South  Level FlightAware Approximate
Tue 01:08:00 PM 14.3075 -87.3570 157° South  Level FlightAware Approximate
Tue 01:09:00 PM 14.1950 -87.3094 162° South  Level FlightAware Approximate
Tue 01:10:00 PM 14.0924 -87.2462 154° Southeast  Level FlightAware Approximate
Tue 01:11:00 PM 14.0572 -87.2167 North  Level FlightAware Approximate
Tue 01:12:00 PM 14.0667 -87.2167 North  Level FlightAware Approximate
Tue 01:13:00 PM 14.0609 -87.2172 North  Level Estimated
Tue 01:14:00 PM 14.0667 -87.2167 North  Level FlightAware Approximate
Tue 01:15:00 PM 14.0609 -87.2172 North  Level Estimated

Login

Don't have an account? Register now (free) for customized features, flight alerts, and more!